sensor_id;sensor_type;location;lat;lon;timestamp;P1;durP1;ratioP1;P2;durP2;ratioP2
41627;SDS011;27321;50.816;6.054;2023-02-28T00:02:41;5.10;;;3.30;;
41627;SDS011;27321;50.816;6.054;2023-02-28T00:05:43;3.67;;;2.93;;
41627;SDS011;27321;50.816;6.054;2023-02-28T00:08:44;4.07;;;2.77;;
41627;SDS011;27321;50.816;6.054;2023-02-28T00:11:45;4.90;;;2.90;;
41627;SDS011;27321;50.816;6.054;2023-02-28T00:14:46;5.03;;;3.40;;
41627;SDS011;27321;50.816;6.054;2023-02-28T00:17:47;6.47;;;3.70;;
41627;SDS011;27321;50.816;6.054;2023-02-28T00:20:48;7.15;;;3.65;;
41627;SDS011;27321;50.816;6.054;2023-02-28T00:23:49;6.80;;;3.43;;
41627;SDS011;27321;50.816;6.054;2023-02-28T00:26:50;4.43;;;3.13;;
41627;SDS011;27321;50.816;6.054;2023-02-28T00:29:52;5.00;;;3.00;;
41627;SDS011;27321;50.816;6.054;2023-02-28T00:32:54;4.40;;;2.97;;
41627;SDS011;27321;50.816;6.054;2023-02-28T00:36:08;4.33;;;2.90;;
41627;SDS011;27321;50.816;6.054;2023-02-28T00:39:11;4.90;;;3.10;;
41627;SDS011;27321;50.816;6.054;2023-02-28T00:42:12;4.57;;;2.85;;
41627;SDS011;27321;50.816;6.054;2023-02-28T00:45:13;3.07;;;2.67;;
41627;SDS011;27321;50.816;6.054;2023-02-28T00:48:14;6.53;;;2.87;;
41627;SDS011;27321;50.816;6.054;2023-02-28T00:51:16;4.25;;;3.25;;
41627;SDS011;27321;50.816;6.054;2023-02-28T00:54:17;4.75;;;3.70;;
41627;SDS011;27321;50.816;6.054;2023-02-28T00:57:23;11.33;;;9.20;;
41627;SDS011;27321;50.816;6.054;2023-02-28T01:00:24;9.50;;;7.23;;
41627;SDS011;27321;50.816;6.054;2023-02-28T01:03:25;18.25;;;13.35;;
41627;SDS011;27321;50.816;6.054;2023-02-28T01:06:26;17.87;;;11.77;;
41627;SDS011;27321;50.816;6.054;2023-02-28T01:09:27;11.83;;;6.40;;
41627;SDS011;27321;50.816;6.054;2023-02-28T01:12:28;14.00;;;8.30;;
41627;SDS011;27321;50.816;6.054;2023-02-28T01:15:29;14.60;;;9.63;;
41627;SDS011;27321;50.816;6.054;2023-02-28T01:18:32;13.67;;;10.43;;
41627;SDS011;27321;50.816;6.054;2023-02-28T01:21:33;13.13;;;7.67;;
41627;SDS011;27321;50.816;6.054;2023-02-28T01:24:35;8.10;;;5.97;;
41627;SDS011;27321;50.816;6.054;2023-02-28T01:27:36;7.27;;;5.33;;
41627;SDS011;27321;50.816;6.054;2023-02-28T01:30:37;3.43;;;2.83;;
41627;SDS011;27321;50.816;6.054;2023-02-28T01:33:38;4.17;;;2.33;;
41627;SDS011;27321;50.816;6.054;2023-02-28T01:36:39;2.75;;;2.33;;
41627;SDS011;27321;50.816;6.054;2023-02-28T01:39:40;5.00;;;2.30;;
41627;SDS011;27321;50.816;6.054;2023-02-28T01:42:41;3.80;;;2.30;;
41627;SDS011;27321;50.816;6.054;2023-02-28T01:45:42;3.27;;;2.17;;
41627;SDS011;27321;50.816;6.054;2023-02-28T01:48:51;3.67;;;2.20;;
41627;SDS011;27321;50.816;6.054;2023-02-28T01:52:06;3.80;;;2.10;;
41627;SDS011;27321;50.816;6.054;2023-02-28T01:55:09;4.17;;;2.30;;
41627;SDS011;27321;50.816;6.054;2023-02-28T01:58:12;3.03;;;2.00;;
41627;SDS011;27321;50.816;6.054;2023-02-28T02:01:13;2.65;;;1.77;;
41627;SDS011;27321;50.816;6.054;2023-02-28T02:04:22;4.03;;;2.20;;
41627;SDS011;27321;50.816;6.054;2023-02-28T02:07:31;3.30;;;2.30;;
41627;SDS011;27321;50.816;6.054;2023-02-28T02:10:39;2.17;;;1.90;;
41627;SDS011;27321;50.816;6.054;2023-02-28T02:17:16;3.47;;;2.00;;
41627;SDS011;27321;50.816;6.054;2023-02-28T02:24:23;3.17;;;2.10;;
41627;SDS011;27321;50.816;6.054;2023-02-28T02:35:18;4.67;;;2.17;;
41627;SDS011;27321;50.816;6.054;2023-02-28T02:41:51;4.57;;;2.40;;
41627;SDS011;27321;50.816;6.054;2023-02-28T02:44:56;2.63;;;1.93;;
41627;SDS011;27321;50.816;6.054;2023-02-28T02:48:05;3.97;;;2.20;;
41627;SDS011;27321;50.816;6.054;2023-02-28T02:51:11;2.83;;;1.87;;
41627;SDS011;27321;50.816;6.054;2023-02-28T02:54:17;3.00;;;2.10;;
41627;SDS011;27321;50.816;6.054;2023-02-28T02:57:25;2.07;;;1.83;;
41627;SDS011;27321;50.816;6.054;2023-02-28T03:00:41;4.00;;;1.90;;
41627;SDS011;27321;50.816;6.054;2023-02-28T03:03:47;5.10;;;2.17;;
41627;SDS011;27321;50.816;6.054;2023-02-28T03:06:50;2.60;;;1.90;;
41627;SDS011;27321;50.816;6.054;2023-02-28T03:09:56;3.20;;;2.07;;
41627;SDS011;27321;50.816;6.054;2023-02-28T03:20:15;4.43;;;2.27;;
41627;SDS011;27321;50.816;6.054;2023-02-28T03:23:56;3.33;;;2.10;;
41627;SDS011;27321;50.816;6.054;2023-02-28T03:27:08;3.20;;;2.03;;
41627;SDS011;27321;50.816;6.054;2023-02-28T03:33:47;4.00;;;2.00;;
41627;SDS011;27321;50.816;6.054;2023-02-28T03:36:55;3.17;;;1.77;;
41627;SDS011;27321;50.816;6.054;2023-02-28T03:40:04;2.10;;;1.50;;
41627;SDS011;27321;50.816;6.054;2023-02-28T03:43:28;4.63;;;2.40;;
41627;SDS011;27321;50.816;6.054;2023-02-28T03:46:36;3.63;;;1.87;;
41627;SDS011;27321;50.816;6.054;2023-02-28T03:50:29;5.23;;;2.13;;
41627;SDS011;27321;50.816;6.054;2023-02-28T03:53:25;4.60;;;1.93;;
41627;SDS011;27321;50.816;6.054;2023-02-28T03:56:34;3.63;;;1.83;;
41627;SDS011;27321;50.816;6.054;2023-02-28T04:00:07;3.97;;;2.27;;
41627;SDS011;27321;50.816;6.054;2023-02-28T04:03:16;3.30;;;1.90;;
41627;SDS011;27321;50.816;6.054;2023-02-28T04:06:19;3.53;;;1.83;;
41627;SDS011;27321;50.816;6.054;2023-02-28T04:09:22;2.43;;;1.57;;
41627;SDS011;27321;50.816;6.054;2023-02-28T04:12:23;3.00;;;2.15;;
41627;SDS011;27321;50.816;6.054;2023-02-28T04:15:25;2.92;;;2.03;;
41627;SDS011;27321;50.816;6.054;2023-02-28T04:18:28;3.73;;;1.80;;
41627;SDS011;27321;50.816;6.054;2023-02-28T04:24:52;4.20;;;1.70;;
41627;SDS011;27321;50.816;6.054;2023-02-28T04:27:56;4.43;;;2.07;;
41627;SDS011;27321;50.816;6.054;2023-02-28T04:31:02;3.03;;;1.67;;
41627;SDS011;27321;50.816;6.054;2023-02-28T04:34:06;3.90;;;2.00;;
41627;SDS011;27321;50.816;6.054;2023-02-28T04:37:07;2.63;;;1.97;;
41627;SDS011;27321;50.816;6.054;2023-02-28T04:40:08;2.67;;;2.07;;
41627;SDS011;27321;50.816;6.054;2023-02-28T04:43:10;2.63;;;1.85;;
41627;SDS011;27321;50.816;6.054;2023-02-28T04:46:11;3.67;;;2.00;;
41627;SDS011;27321;50.816;6.054;2023-02-28T04:49:12;3.63;;;2.20;;
41627;SDS011;27321;50.816;6.054;2023-02-28T04:52:13;3.92;;;2.15;;
41627;SDS011;27321;50.816;6.054;2023-02-28T04:55:14;2.80;;;2.08;;
41627;SDS011;27321;50.816;6.054;2023-02-28T04:58:16;3.28;;;1.75;;
41627;SDS011;27321;50.816;6.054;2023-02-28T05:01:21;3.45;;;2.42;;
41627;SDS011;27321;50.816;6.054;2023-02-28T05:04:29;5.00;;;2.35;;
41627;SDS011;27321;50.816;6.054;2023-02-28T05:07:29;3.57;;;2.20;;
41627;SDS011;27321;50.816;6.054;2023-02-28T05:10:31;3.80;;;2.70;;
41627;SDS011;27321;50.816;6.054;2023-02-28T05:13:33;2.90;;;2.17;;
41627;SDS011;27321;50.816;6.054;2023-02-28T05:16:35;3.57;;;2.40;;
41627;SDS011;27321;50.816;6.054;2023-02-28T05:19:37;3.00;;;2.58;;
41627;SDS011;27321;50.816;6.054;2023-02-28T05:22:38;4.13;;;2.80;;
41627;SDS011;27321;50.816;6.054;2023-02-28T05:25:40;5.00;;;2.70;;
41627;SDS011;27321;50.816;6.054;2023-02-28T05:28:41;6.10;;;2.80;;
41627;SDS011;27321;50.816;6.054;2023-02-28T05:31:42;5.07;;;3.00;;
41627;SDS011;27321;50.816;6.054;2023-02-28T05:34:43;5.28;;;3.33;;
41627;SDS011;27321;50.816;6.054;2023-02-28T05:37:44;5.10;;;3.03;;
41627;SDS011;27321;50.816;6.054;2023-02-28T05:40:45;4.33;;;3.20;;
41627;SDS011;27321;50.816;6.054;2023-02-28T05:43:46;6.43;;;3.50;;
41627;SDS011;27321;50.816;6.054;2023-02-28T05:46:48;5.20;;;3.20;;
41627;SDS011;27321;50.816;6.054;2023-02-28T05:49:50;4.03;;;2.90;;
41627;SDS011;27321;50.816;6.054;2023-02-28T05:52:51;6.15;;;3.42;;
41627;SDS011;27321;50.816;6.054;2023-02-28T05:55:52;5.10;;;3.13;;
41627;SDS011;27321;50.816;6.054;2023-02-28T05:58:53;5.65;;;3.10;;
41627;SDS011;27321;50.816;6.054;2023-02-28T06:01:54;5.05;;;3.47;;
41627;SDS011;27321;50.816;6.054;2023-02-28T06:04:57;4.73;;;2.70;;
41627;SDS011;27321;50.816;6.054;2023-02-28T06:07:58;4.07;;;3.33;;
41627;SDS011;27321;50.816;6.054;2023-02-28T06:11:02;5.77;;;3.70;;
41627;SDS011;27321;50.816;6.054;2023-02-28T06:14:07;5.17;;;3.43;;
41627;SDS011;27321;50.816;6.054;2023-02-28T06:17:14;6.10;;;3.77;;
41627;SDS011;27321;50.816;6.054;2023-02-28T06:20:15;6.37;;;4.07;;
41627;SDS011;27321;50.816;6.054;2023-02-28T06:23:17;6.93;;;4.07;;
41627;SDS011;27321;50.816;6.054;2023-02-28T06:26:18;5.23;;;3.80;;
41627;SDS011;27321;50.816;6.054;2023-02-28T06:29:20;5.43;;;4.25;;
41627;SDS011;27321;50.816;6.054;2023-02-28T06:32:21;5.87;;;4.47;;
41627;SDS011;27321;50.816;6.054;2023-02-28T06:35:22;5.60;;;4.22;;
41627;SDS011;27321;50.816;6.054;2023-02-28T06:38:24;7.72;;;5.05;;
41627;SDS011;27321;50.816;6.054;2023-02-28T06:41:25;7.07;;;4.60;;
41627;SDS011;27321;50.816;6.054;2023-02-28T06:44:27;7.27;;;4.67;;
41627;SDS011;27321;50.816;6.054;2023-02-28T06:47:35;6.63;;;4.53;;
41627;SDS011;27321;50.816;6.054;2023-02-28T06:50:38;6.10;;;4.23;;
41627;SDS011;27321;50.816;6.054;2023-02-28T06:53:39;8.85;;;4.63;;
41627;SDS011;27321;50.816;6.054;2023-02-28T06:56:41;5.60;;;4.00;;
41627;SDS011;27321;50.816;6.054;2023-02-28T06:59:42;7.50;;;4.07;;
41627;SDS011;27321;50.816;6.054;2023-02-28T07:02:43;6.67;;;4.17;;
41627;SDS011;27321;50.816;6.054;2023-02-28T07:05:44;6.72;;;4.88;;
41627;SDS011;27321;50.816;6.054;2023-02-28T07:11:47;5.57;;;4.10;;
41627;SDS011;27321;50.816;6.054;2023-02-28T07:14:48;6.87;;;4.43;;
41627;SDS011;27321;50.816;6.054;2023-02-28T07:17:49;7.07;;;4.63;;
41627;SDS011;27321;50.816;6.054;2023-02-28T07:20:50;7.03;;;4.72;;
41627;SDS011;27321;50.816;6.054;2023-02-28T07:23:51;6.90;;;4.28;;
41627;SDS011;27321;50.816;6.054;2023-02-28T07:26:52;7.32;;;4.32;;
41627;SDS011;27321;50.816;6.054;2023-02-28T07:29:53;6.77;;;4.30;;
41627;SDS011;27321;50.816;6.054;2023-02-28T07:32:55;6.97;;;5.00;;
41627;SDS011;27321;50.816;6.054;2023-02-28T07:36:03;5.45;;;3.88;;
41627;SDS011;27321;50.816;6.054;2023-02-28T07:39:15;8.60;;;4.07;;
41627;SDS011;27321;50.816;6.054;2023-02-28T07:42:16;9.53;;;4.27;;
41627;SDS011;27321;50.816;6.054;2023-02-28T07:45:18;5.53;;;3.65;;
41627;SDS011;27321;50.816;6.054;2023-02-28T07:48:19;6.78;;;3.78;;
41627;SDS011;27321;50.816;6.054;2023-02-28T07:51:21;6.73;;;3.40;;
41627;SDS011;27321;50.816;6.054;2023-02-28T07:54:23;7.30;;;3.63;;
41627;SDS011;27321;50.816;6.054;2023-02-28T07:57:23;4.00;;;2.67;;
41627;SDS011;27321;50.816;6.054;2023-02-28T08:00:25;5.72;;;3.40;;
41627;SDS011;27321;50.816;6.054;2023-02-28T08:03:27;4.07;;;3.45;;
41627;SDS011;27321;50.816;6.054;2023-02-28T08:06:28;4.27;;;3.07;;
41627;SDS011;27321;50.816;6.054;2023-02-28T08:09:29;7.40;;;3.70;;
41627;SDS011;27321;50.816;6.054;2023-02-28T08:12:30;5.45;;;3.20;;
41627;SDS011;27321;50.816;6.054;2023-02-28T08:15:31;3.33;;;3.03;;
41627;SDS011;27321;50.816;6.054;2023-02-28T08:18:32;6.27;;;3.33;;
41627;SDS011;27321;50.816;6.054;2023-02-28T08:21:34;4.22;;;3.05;;
41627;SDS011;27321;50.816;6.054;2023-02-28T08:24:35;5.80;;;3.00;;
41627;SDS011;27321;50.816;6.054;2023-02-28T08:27:36;6.40;;;3.60;;
41627;SDS011;27321;50.816;6.054;2023-02-28T08:30:37;5.97;;;3.03;;
41627;SDS011;27321;50.816;6.054;2023-02-28T08:33:41;6.20;;;3.20;;
41627;SDS011;27321;50.816;6.054;2023-02-28T08:36:42;4.43;;;2.88;;
41627;SDS011;27321;50.816;6.054;2023-02-28T08:39:45;5.20;;;2.80;;
41627;SDS011;27321;50.816;6.054;2023-02-28T08:42:48;5.30;;;2.50;;
41627;SDS011;27321;50.816;6.054;2023-02-28T08:45:54;6.13;;;2.77;;
41627;SDS011;27321;50.816;6.054;2023-02-28T08:48:58;5.87;;;2.70;;
41627;SDS011;27321;50.816;6.054;2023-02-28T08:52:01;5.00;;;2.40;;
41627;SDS011;27321;50.816;6.054;2023-02-28T08:55:02;6.27;;;2.53;;
41627;SDS011;27321;50.816;6.054;2023-02-28T08:58:03;2.58;;;2.10;;
41627;SDS011;27321;50.816;6.054;2023-02-28T09:01:12;3.77;;;2.43;;
41627;SDS011;27321;50.816;6.054;2023-02-28T09:04:27;2.53;;;2.03;;
41627;SDS011;27321;50.816;6.054;2023-02-28T09:07:31;2.87;;;2.27;;
41627;SDS011;27321;50.816;6.054;2023-02-28T09:10:32;2.57;;;2.37;;
41627;SDS011;27321;50.816;6.054;2023-02-28T09:13:33;3.33;;;1.97;;
41627;SDS011;27321;50.816;6.054;2023-02-28T09:16:34;4.82;;;2.03;;
41627;SDS011;27321;50.816;6.054;2023-02-28T09:19:35;4.45;;;2.10;;
41627;SDS011;27321;50.816;6.054;2023-02-28T09:22:37;4.03;;;2.05;;
41627;SDS011;27321;50.816;6.054;2023-02-28T09:25:40;3.28;;;2.03;;
41627;SDS011;27321;50.816;6.054;2023-02-28T09:28:51;4.57;;;1.63;;
41627;SDS011;27321;50.816;6.054;2023-02-28T09:31:53;2.77;;;1.80;;
41627;SDS011;27321;50.816;6.054;2023-02-28T09:34:54;1.90;;;1.63;;
41627;SDS011;27321;50.816;6.054;2023-02-28T09:37:55;4.60;;;1.65;;
41627;SDS011;27321;50.816;6.054;2023-02-28T09:40:59;2.47;;;1.70;;
41627;SDS011;27321;50.816;6.054;2023-02-28T09:44:04;3.10;;;2.50;;
41627;SDS011;27321;50.816;6.054;2023-02-28T09:53:35;7.03;;;4.90;;
41627;SDS011;27321;50.816;6.054;2023-02-28T09:56:40;8.23;;;5.90;;
41627;SDS011;27321;50.816;6.054;2023-02-28T10:06:44;2.43;;;1.90;;
41627;SDS011;27321;50.816;6.054;2023-02-28T10:09:51;4.77;;;1.90;;
41627;SDS011;27321;50.816;6.054;2023-02-28T10:12:59;3.13;;;1.80;;
41627;SDS011;27321;50.816;6.054;2023-02-28T10:19:17;1.73;;;1.40;;
41627;SDS011;27321;50.816;6.054;2023-02-28T10:26:20;2.10;;;1.40;;
41627;SDS011;27321;50.816;6.054;2023-02-28T10:29:24;2.67;;;1.50;;
41627;SDS011;27321;50.816;6.054;2023-02-28T10:32:26;2.00;;;1.37;;
41627;SDS011;27321;50.816;6.054;2023-02-28T10:35:32;1.83;;;1.40;;
41627;SDS011;27321;50.816;6.054;2023-02-28T10:38:35;1.50;;;1.10;;
41627;SDS011;27321;50.816;6.054;2023-02-28T10:41:38;1.33;;;1.13;;
41627;SDS011;27321;50.816;6.054;2023-02-28T10:44:43;3.23;;;1.30;;
41627;SDS011;27321;50.816;6.054;2023-02-28T10:50:56;2.25;;;1.55;;
41627;SDS011;27321;50.816;6.054;2023-02-28T11:00:33;2.50;;;1.33;;
41627;SDS011;27321;50.816;6.054;2023-02-28T11:03:36;1.70;;;1.40;;
41627;SDS011;27321;50.816;6.054;2023-02-28T11:06:37;1.70;;;1.30;;
41627;SDS011;27321;50.816;6.054;2023-02-28T11:09:40;2.00;;;1.83;;
41627;SDS011;27321;50.816;6.054;2023-02-28T11:12:43;1.90;;;1.60;;
41627;SDS011;27321;50.816;6.054;2023-02-28T11:15:51;1.73;;;1.63;;
41627;SDS011;27321;50.816;6.054;2023-02-28T11:18:59;2.23;;;1.70;;
41627;SDS011;27321;50.816;6.054;2023-02-28T11:22:01;1.63;;;1.53;;
41627;SDS011;27321;50.816;6.054;2023-02-28T11:25:08;1.63;;;1.47;;
41627;SDS011;27321;50.816;6.054;2023-02-28T11:28:24;1.90;;;1.43;;
41627;SDS011;27321;50.816;6.054;2023-02-28T11:31:28;2.10;;;1.70;;
41627;SDS011;27321;50.816;6.054;2023-02-28T11:34:30;2.35;;;1.60;;
41627;SDS011;27321;50.816;6.054;2023-02-28T11:37:32;1.63;;;1.50;;
41627;SDS011;27321;50.816;6.054;2023-02-28T11:40:40;4.55;;;1.73;;
41627;SDS011;27321;50.816;6.054;2023-02-28T11:43:59;1.93;;;1.50;;
41627;SDS011;27321;50.816;6.054;2023-02-28T11:51:00;2.10;;;1.60;;
41627;SDS011;27321;50.816;6.054;2023-02-28T12:01:50;2.37;;;1.43;;
41627;SDS011;27321;50.816;6.054;2023-02-28T12:19:04;3.20;;;1.67;;
41627;SDS011;27321;50.816;6.054;2023-02-28T12:28:43;2.40;;;2.20;;
41627;SDS011;27321;50.816;6.054;2023-02-28T12:31:51;2.30;;;1.93;;
41627;SDS011;27321;50.816;6.054;2023-02-28T12:35:17;4.60;;;2.00;;
41627;SDS011;27321;50.816;6.054;2023-02-28T12:38:27;3.27;;;1.80;;
41627;SDS011;27321;50.816;6.054;2023-02-28T12:45:39;2.23;;;1.70;;
41627;SDS011;27321;50.816;6.054;2023-02-28T12:48:44;1.80;;;1.40;;
41627;SDS011;27321;50.816;6.054;2023-02-28T12:51:59;2.60;;;1.87;;
41627;SDS011;27321;50.816;6.054;2023-02-28T12:55:25;4.80;;;1.70;;
41627;SDS011;27321;50.816;6.054;2023-02-28T12:58:34;3.73;;;1.90;;
41627;SDS011;27321;50.816;6.054;2023-02-28T13:02:02;3.07;;;1.90;;
41627;SDS011;27321;50.816;6.054;2023-02-28T13:08:59;3.75;;;1.70;;
41627;SDS011;27321;50.816;6.054;2023-02-28T13:12:17;1.80;;;1.70;;
41627;SDS011;27321;50.816;6.054;2023-02-28T13:15:20;1.83;;;1.73;;
41627;SDS011;27321;50.816;6.054;2023-02-28T13:18:38;3.63;;;1.80;;
41627;SDS011;27321;50.816;6.054;2023-02-28T13:21:45;2.00;;;1.80;;
41627;SDS011;27321;50.816;6.054;2023-02-28T13:24:51;2.10;;;1.70;;
41627;SDS011;27321;50.816;6.054;2023-02-28T13:27:54;2.07;;;1.90;;
41627;SDS011;27321;50.816;6.054;2023-02-28T13:31:03;2.67;;;1.97;;
41627;SDS011;27321;50.816;6.054;2023-02-28T13:34:14;2.57;;;1.97;;
41627;SDS011;27321;50.816;6.054;2023-02-28T13:40:28;2.83;;;1.93;;
41627;SDS011;27321;50.816;6.054;2023-02-28T13:50:22;2.40;;;1.87;;
41627;SDS011;27321;50.816;6.054;2023-02-28T13:54:12;2.73;;;2.10;;
41627;SDS011;27321;50.816;6.054;2023-02-28T14:07:57;2.27;;;1.93;;
41627;SDS011;27321;50.816;6.054;2023-02-28T14:11:30;3.03;;;2.27;;
41627;SDS011;27321;50.816;6.054;2023-02-28T14:17:39;4.43;;;2.70;;
41627;SDS011;27321;50.816;6.054;2023-02-28T14:37:37;2.27;;;2.00;;
41627;SDS011;27321;50.816;6.054;2023-02-28T14:40:41;3.70;;;2.57;;
41627;SDS011;27321;50.816;6.054;2023-02-28T14:43:49;2.50;;;2.20;;
41627;SDS011;27321;50.816;6.054;2023-02-28T14:46:59;4.57;;;2.50;;
41627;SDS011;27321;50.816;6.054;2023-02-28T14:50:07;4.03;;;2.37;;
41627;SDS011;27321;50.816;6.054;2023-02-28T14:53:20;4.50;;;2.67;;
41627;SDS011;27321;50.816;6.054;2023-02-28T14:56:24;3.13;;;2.03;;
41627;SDS011;27321;50.816;6.054;2023-02-28T14:59:35;3.05;;;2.22;;
41627;SDS011;27321;50.816;6.054;2023-02-28T15:02:36;2.00;;;1.88;;
41627;SDS011;27321;50.816;6.054;2023-02-28T15:05:39;3.30;;;2.50;;
41627;SDS011;27321;50.816;6.054;2023-02-28T15:08:40;3.23;;;2.33;;
41627;SDS011;27321;50.816;6.054;2023-02-28T15:11:41;3.60;;;2.28;;
41627;SDS011;27321;50.816;6.054;2023-02-28T15:18:03;3.37;;;2.50;;
41627;SDS011;27321;50.816;6.054;2023-02-28T15:21:11;2.83;;;2.27;;
41627;SDS011;27321;50.816;6.054;2023-02-28T15:24:50;3.23;;;2.50;;
41627;SDS011;27321;50.816;6.054;2023-02-28T15:27:49;2.35;;;2.15;;
41627;SDS011;27321;50.816;6.054;2023-02-28T15:31:01;4.47;;;2.50;;
41627;SDS011;27321;50.816;6.054;2023-02-28T15:34:05;2.53;;;2.20;;
41627;SDS011;27321;50.816;6.054;2023-02-28T15:40:37;5.20;;;2.50;;
41627;SDS011;27321;50.816;6.054;2023-02-28T15:43:43;3.37;;;2.30;;
41627;SDS011;27321;50.816;6.054;2023-02-28T15:46:53;3.27;;;2.50;;
41627;SDS011;27321;50.816;6.054;2023-02-28T15:50:04;3.10;;;2.00;;
41627;SDS011;27321;50.816;6.054;2023-02-28T15:53:13;3.13;;;2.10;;
41627;SDS011;27321;50.816;6.054;2023-02-28T15:56:33;3.37;;;2.57;;
41627;SDS011;27321;50.816;6.054;2023-02-28T15:59:57;7.33;;;3.87;;
41627;SDS011;27321;50.816;6.054;2023-02-28T16:03:32;8.80;;;3.20;;
41627;SDS011;27321;50.816;6.054;2023-02-28T16:10:01;5.87;;;3.50;;
41627;SDS011;27321;50.816;6.054;2023-02-28T16:13:03;4.50;;;3.03;;
41627;SDS011;27321;50.816;6.054;2023-02-28T16:16:05;4.07;;;2.63;;
41627;SDS011;27321;50.816;6.054;2023-02-28T16:19:07;5.95;;;3.38;;
41627;SDS011;27321;50.816;6.054;2023-02-28T16:25:13;4.27;;;2.73;;
41627;SDS011;27321;50.816;6.054;2023-02-28T16:28:19;3.20;;;2.87;;
41627;SDS011;27321;50.816;6.054;2023-02-28T16:31:30;5.60;;;2.97;;
41627;SDS011;27321;50.816;6.054;2023-02-28T16:34:36;5.27;;;2.83;;
41627;SDS011;27321;50.816;6.054;2023-02-28T16:37:37;4.43;;;2.87;;
41627;SDS011;27321;50.816;6.054;2023-02-28T16:40:38;3.40;;;2.72;;
41627;SDS011;27321;50.816;6.054;2023-02-28T16:43:39;6.07;;;2.70;;
41627;SDS011;27321;50.816;6.054;2023-02-28T16:46:40;3.55;;;2.58;;
41627;SDS011;27321;50.816;6.054;2023-02-28T16:49:41;5.20;;;3.55;;
41627;SDS011;27321;50.816;6.054;2023-02-28T16:52:42;4.83;;;3.33;;
41627;SDS011;27321;50.816;6.054;2023-02-28T16:55:43;3.72;;;2.75;;
41627;SDS011;27321;50.816;6.054;2023-02-28T16:58:45;3.92;;;2.60;;
41627;SDS011;27321;50.816;6.054;2023-02-28T17:01:47;3.47;;;2.57;;
41627;SDS011;27321;50.816;6.054;2023-02-28T17:04:48;5.60;;;2.80;;
41627;SDS011;27321;50.816;6.054;2023-02-28T17:07:49;4.10;;;2.37;;
41627;SDS011;27321;50.816;6.054;2023-02-28T17:10:50;5.15;;;2.65;;
41627;SDS011;27321;50.816;6.054;2023-02-28T17:13:51;4.97;;;2.53;;
41627;SDS011;27321;50.816;6.054;2023-02-28T17:16:54;3.50;;;2.60;;
41627;SDS011;27321;50.816;6.054;2023-02-28T17:19:55;3.53;;;2.53;;
41627;SDS011;27321;50.816;6.054;2023-02-28T17:22:56;9.47;;;4.40;;
41627;SDS011;27321;50.816;6.054;2023-02-28T17:25:57;7.55;;;5.00;;
41627;SDS011;27321;50.816;6.054;2023-02-28T17:28:58;7.40;;;4.82;;
41627;SDS011;27321;50.816;6.054;2023-02-28T17:31:59;6.83;;;4.43;;
41627;SDS011;27321;50.816;6.054;2023-02-28T17:35:00;4.93;;;3.43;;
41627;SDS011;27321;50.816;6.054;2023-02-28T17:38:01;6.77;;;4.07;;
41627;SDS011;27321;50.816;6.054;2023-02-28T17:41:02;7.10;;;4.47;;
41627;SDS011;27321;50.816;6.054;2023-02-28T17:44:04;7.13;;;3.90;;
41627;SDS011;27321;50.816;6.054;2023-02-28T17:47:05;5.73;;;4.10;;
41627;SDS011;27321;50.816;6.054;2023-02-28T17:50:06;8.60;;;5.00;;
41627;SDS011;27321;50.816;6.054;2023-02-28T17:53:13;11.17;;;6.97;;
41627;SDS011;27321;50.816;6.054;2023-02-28T17:56:18;9.07;;;6.10;;
41627;SDS011;27321;50.816;6.054;2023-02-28T17:59:25;8.77;;;5.47;;
41627;SDS011;27321;50.816;6.054;2023-02-28T18:02:33;11.43;;;5.30;;
41627;SDS011;27321;50.816;6.054;2023-02-28T18:05:34;8.85;;;6.10;;
41627;SDS011;27321;50.816;6.054;2023-02-28T18:11:37;8.57;;;5.50;;
41627;SDS011;27321;50.816;6.054;2023-02-28T18:14:50;12.63;;;6.37;;
41627;SDS011;27321;50.816;6.054;2023-02-28T18:17:51;9.30;;;5.68;;
41627;SDS011;27321;50.816;6.054;2023-02-28T18:20:52;8.60;;;5.13;;
41627;SDS011;27321;50.816;6.054;2023-02-28T18:23:53;7.32;;;4.95;;
41627;SDS011;27321;50.816;6.054;2023-02-28T18:26:54;7.83;;;4.97;;
41627;SDS011;27321;50.816;6.054;2023-02-28T18:29:55;7.37;;;4.60;;
41627;SDS011;27321;50.816;6.054;2023-02-28T18:33:01;7.73;;;5.10;;
41627;SDS011;27321;50.816;6.054;2023-02-28T18:36:03;8.20;;;5.40;;
41627;SDS011;27321;50.816;6.054;2023-02-28T18:39:06;10.60;;;6.80;;
41627;SDS011;27321;50.816;6.054;2023-02-28T18:42:08;9.80;;;6.00;;
41627;SDS011;27321;50.816;6.054;2023-02-28T18:45:09;39.15;;;20.33;;
41627;SDS011;27321;50.816;6.054;2023-02-28T18:48:10;11.38;;;7.30;;
41627;SDS011;27321;50.816;6.054;2023-02-28T18:54:19;9.67;;;5.90;;
41627;SDS011;27321;50.816;6.054;2023-02-28T18:57:20;10.17;;;5.50;;
41627;SDS011;27321;50.816;6.054;2023-02-28T19:00:22;10.27;;;6.22;;
41627;SDS011;27321;50.816;6.054;2023-02-28T19:03:25;8.47;;;5.70;;
41627;SDS011;27321;50.816;6.054;2023-02-28T19:06:26;15.75;;;8.57;;
41627;SDS011;27321;50.816;6.054;2023-02-28T19:09:28;12.60;;;7.37;;
41627;SDS011;27321;50.816;6.054;2023-02-28T19:12:32;8.37;;;6.00;;
41627;SDS011;27321;50.816;6.054;2023-02-28T19:15:37;8.13;;;6.30;;
41627;SDS011;27321;50.816;6.054;2023-02-28T19:18:38;8.17;;;6.03;;
41627;SDS011;27321;50.816;6.054;2023-02-28T19:21:39;6.55;;;4.93;;
41627;SDS011;27321;50.816;6.054;2023-02-28T19:24:40;5.57;;;4.63;;
41627;SDS011;27321;50.816;6.054;2023-02-28T19:27:41;7.70;;;4.77;;
41627;SDS011;27321;50.816;6.054;2023-02-28T19:30:46;7.47;;;5.20;;
41627;SDS011;27321;50.816;6.054;2023-02-28T19:33:49;7.20;;;5.43;;
41627;SDS011;27321;50.816;6.054;2023-02-28T19:36:52;13.20;;;6.83;;
41627;SDS011;27321;50.816;6.054;2023-02-28T19:39:52;10.80;;;6.40;;
41627;SDS011;27321;50.816;6.054;2023-02-28T19:42:56;10.30;;;6.53;;
41627;SDS011;27321;50.816;6.054;2023-02-28T19:45:57;9.20;;;6.85;;
41627;SDS011;27321;50.816;6.054;2023-02-28T19:48:58;8.52;;;5.85;;
41627;SDS011;27321;50.816;6.054;2023-02-28T19:51:59;7.23;;;5.97;;
41627;SDS011;27321;50.816;6.054;2023-02-28T19:55:00;11.77;;;6.15;;
41627;SDS011;27321;50.816;6.054;2023-02-28T19:58:02;7.38;;;5.15;;
41627;SDS011;27321;50.816;6.054;2023-02-28T20:01:10;11.67;;;6.87;;
41627;SDS011;27321;50.816;6.054;2023-02-28T20:04:15;14.00;;;9.13;;
41627;SDS011;27321;50.816;6.054;2023-02-28T20:07:16;9.43;;;6.93;;
41627;SDS011;27321;50.816;6.054;2023-02-28T20:10:19;13.33;;;7.20;;
41627;SDS011;27321;50.816;6.054;2023-02-28T20:13:20;10.90;;;7.33;;
41627;SDS011;27321;50.816;6.054;2023-02-28T20:16:22;9.95;;;6.65;;
41627;SDS011;27321;50.816;6.054;2023-02-28T20:19:28;8.23;;;5.50;;
41627;SDS011;27321;50.816;6.054;2023-02-28T20:22:29;8.23;;;5.68;;
41627;SDS011;27321;50.816;6.054;2023-02-28T20:25:30;8.37;;;5.50;;
41627;SDS011;27321;50.816;6.054;2023-02-28T20:28:32;7.47;;;5.47;;
41627;SDS011;27321;50.816;6.054;2023-02-28T20:31:33;7.60;;;4.90;;
41627;SDS011;27321;50.816;6.054;2023-02-28T20:34:39;7.70;;;5.17;;
41627;SDS011;27321;50.816;6.054;2023-02-28T20:37:40;8.30;;;5.63;;
41627;SDS011;27321;50.816;6.054;2023-02-28T20:44:18;10.10;;;5.27;;
41627;SDS011;27321;50.816;6.054;2023-02-28T20:47:19;6.17;;;5.10;;
41627;SDS011;27321;50.816;6.054;2023-02-28T20:50:20;7.57;;;5.07;;
41627;SDS011;27321;50.816;6.054;2023-02-28T20:53:21;5.90;;;3.97;;
41627;SDS011;27321;50.816;6.054;2023-02-28T20:56:24;7.30;;;5.00;;
41627;SDS011;27321;50.816;6.054;2023-02-28T20:59:24;6.77;;;5.03;;
41627;SDS011;27321;50.816;6.054;2023-02-28T21:02:26;7.93;;;5.25;;
41627;SDS011;27321;50.816;6.054;2023-02-28T21:05:27;7.05;;;5.57;;
41627;SDS011;27321;50.816;6.054;2023-02-28T21:08:28;7.83;;;5.87;;
41627;SDS011;27321;50.816;6.054;2023-02-28T21:11:30;8.97;;;6.33;;
41627;SDS011;27321;50.816;6.054;2023-02-28T21:14:33;9.57;;;5.63;;
41627;SDS011;27321;50.816;6.054;2023-02-28T21:17:34;7.63;;;5.68;;
41627;SDS011;27321;50.816;6.054;2023-02-28T21:20:35;8.30;;;5.97;;